createdAt,value
2023-04-22T00:00:34.693Z,100744.59
2023-04-22T00:03:01.163Z,100754.91
2023-04-22T00:05:27.586Z,100792.53
2023-04-22T00:07:53.877Z,100833.69
2023-04-22T00:10:20.078Z,100786.84
2023-04-22T00:12:46.283Z,100720.09
2023-04-22T00:15:12.483Z,100663.16
2023-04-22T00:17:38.746Z,100629.22
2023-04-22T00:20:05.201Z,100572.44
2023-04-22T00:22:31.424Z,100715.47
2023-04-22T00:24:57.639Z,100753.06
2023-04-22T00:27:23.863Z,100800.44
2023-04-22T00:29:50.056Z,100735.94
2023-04-22T00:32:16.255Z,100718.91
2023-04-22T00:34:42.464Z,100675.69
2023-04-22T00:37:08.688Z,100709.09
2023-04-22T00:39:34.885Z,100674.69
2023-04-22T00:42:01.108Z,100611.59
2023-04-22T00:44:27.309Z,100580.16
2023-04-22T00:46:53.959Z,100651.16
2023-04-22T00:49:20.211Z,100693.50
2023-04-22T00:51:46.431Z,100741.16
2023-04-22T00:54:12.637Z,100760.31
2023-04-22T00:56:38.853Z,100668.00
2023-04-22T00:59:05.056Z,100768.34
2023-04-22T01:01:31.284Z,100867.38
2023-04-22T01:03:57.800Z,100860.06
2023-04-22T01:06:24.098Z,100762.41
2023-04-22T01:08:50.302Z,100719.38
2023-04-22T01:11:16.515Z,100701.31
2023-04-22T01:13:42.726Z,100601.56
2023-04-22T01:16:09.120Z,100587.28
2023-04-22T01:18:35.567Z,100550.94
2023-04-22T01:21:01.847Z,100553.41
2023-04-22T01:23:28.079Z,100575.63
2023-04-22T01:25:54.292Z,100562.41
2023-04-22T01:28:20.506Z,100685.09
2023-04-22T01:30:46.753Z,100839.34
2023-04-22T01:33:13.020Z,100907.66
2023-04-22T01:35:39.456Z,100989.97
2023-04-22T01:38:06.039Z,100980.44
2023-04-22T01:40:32.255Z,100946.16
2023-04-22T01:43:01.606Z,100859.78
2023-04-22T01:45:27.854Z,100824.44
2023-04-22T01:47:54.138Z,100746.13
2023-04-22T01:50:20.546Z,100673.34
2023-04-22T01:52:46.756Z,100601.25
2023-04-22T01:55:12.961Z,100611.53
2023-04-22T01:57:39.177Z,100564.09
2023-04-22T02:00:05.710Z,100649.25
2023-04-22T02:02:31.983Z,100727.06
2023-04-22T02:04:58.299Z,100824.38
2023-04-22T02:07:24.526Z,100892.28
2023-04-22T02:09:50.981Z,100932.94
2023-04-22T02:12:17.234Z,100911.22
2023-04-22T02:14:43.436Z,100913.28
2023-04-22T02:17:09.660Z,100888.56
2023-04-22T02:19:35.873Z,100842.91
2023-04-22T02:22:02.116Z,100810.38
2023-04-22T02:24:28.310Z,100740.91
2023-04-22T02:26:54.519Z,100749.09
2023-04-22T02:29:20.737Z,100751.88
2023-04-22T02:31:46.954Z,100746.94
2023-04-22T02:34:13.187Z,100768.44
2023-04-22T02:36:39.398Z,100777.34
2023-04-22T02:39:05.613Z,100743.88
2023-04-22T02:41:31.923Z,100729.56
2023-04-22T02:43:58.121Z,100728.00
2023-04-22T02:46:24.373Z,100790.97
2023-04-22T02:48:50.606Z,100792.91
2023-04-22T02:51:16.826Z,100770.56
2023-04-22T02:53:43.031Z,100727.63
2023-04-22T02:56:09.250Z,100688.03
2023-04-22T02:58:35.455Z,100673.22
2023-04-22T03:01:01.711Z,100652.91
2023-04-22T03:03:28.034Z,100635.97
2023-04-22T03:05:54.347Z,100682.09
2023-04-22T03:08:20.565Z,100657.63
2023-04-22T03:10:46.771Z,100662.94
2023-04-22T03:13:13.170Z,100625.16
2023-04-22T03:15:42.388Z,100641.66
2023-04-22T03:18:08.640Z,100644.88
2023-04-22T03:20:35.126Z,100653.06
2023-04-22T03:23:01.464Z,100620.50
2023-04-22T03:25:27.746Z,100648.66
2023-04-22T03:27:53.953Z,100660.63
2023-04-22T03:30:20.171Z,100663.81
2023-04-22T03:32:46.414Z,100668.34
2023-04-22T03:35:12.692Z,100735.63
2023-04-22T03:37:38.923Z,100768.28
2023-04-22T03:40:05.442Z,100779.03
2023-04-22T03:42:31.693Z,100759.91
2023-04-22T03:44:57.899Z,100716.28
2023-04-22T03:47:24.127Z,100708.31
2023-04-22T03:49:50.338Z,100731.59
2023-04-22T03:52:16.547Z,100731.22
2023-04-22T03:54:42.741Z,100712.69
2023-04-22T03:57:08.963Z,100693.13
2023-04-22T03:59:35.170Z,100646.66
2023-04-22T04:02:01.459Z,100590.81
2023-04-22T04:04:28.073Z,100519.53
2023-04-22T04:06:55.010Z,100511.00
2023-04-22T04:09:21.232Z,100466.38
2023-04-22T04:11:47.453Z,100464.25
2023-04-22T04:14:13.753Z,100506.31
2023-04-22T04:16:39.994Z,100546.47
2023-04-22T04:19:06.201Z,100625.75
2023-04-22T04:21:32.411Z,100681.88
2023-04-22T04:23:58.858Z,100696.81
2023-04-22T04:26:25.078Z,100703.78
2023-04-22T04:28:51.287Z,100708.75
2023-04-22T04:31:17.558Z,100743.38
2023-04-22T04:33:43.837Z,100749.16
2023-04-22T04:36:10.045Z,100712.69
2023-04-22T04:38:36.246Z,100675.31
2023-04-22T04:41:02.464Z,100683.81
2023-04-22T04:43:28.681Z,100684.47
2023-04-22T04:45:54.877Z,100665.47
2023-04-22T04:48:21.108Z,100580.03
2023-04-22T04:50:47.318Z,100461.44
2023-04-22T04:53:13.517Z,100337.16
2023-04-22T04:55:39.711Z,100175.97
2023-04-22T04:58:05.940Z,99999.56
2023-04-22T05:00:32.154Z,99782.06
2023-04-22T05:02:58.557Z,99669.72
2023-04-22T05:05:24.894Z,99492.25
2023-04-22T05:07:51.124Z,99366.72
2023-04-22T05:10:17.313Z,99223.19
2023-04-22T05:12:44.162Z,99198.88
2023-04-22T05:15:10.559Z,99227.78
2023-04-22T05:17:36.781Z,99198.09
2023-04-22T05:20:03.434Z,99224.44
2023-04-22T05:22:30.092Z,99259.84
2023-04-22T05:24:56.312Z,99272.88
2023-04-22T05:27:22.534Z,99156.25
2023-04-22T05:29:48.730Z,99071.34
2023-04-22T05:32:15.060Z,99102.97
2023-04-22T05:34:41.349Z,99019.91
2023-04-22T05:37:07.560Z,98928.50
2023-04-22T05:39:33.760Z,99071.97
2023-04-22T05:41:59.994Z,99265.63
2023-04-22T05:44:26.207Z,99139.22
2023-04-22T05:46:52.435Z,99107.75
2023-04-22T05:49:18.632Z,99018.94
2023-04-22T05:51:45.159Z,98948.41
2023-04-22T05:54:11.381Z,98870.00
2023-04-22T05:56:37.615Z,98714.78
2023-04-22T05:59:03.855Z,98645.22
2023-04-22T06:01:30.091Z,98571.06
2023-04-22T06:03:56.500Z,98528.00
2023-04-22T06:06:22.861Z,98553.38
2023-04-22T06:08:49.071Z,98407.88
2023-04-22T06:11:15.319Z,98492.59
2023-04-22T06:13:41.551Z,98473.88
2023-04-22T06:18:35.917Z,98529.81
2023-04-22T06:21:02.227Z,98405.41
2023-04-22T06:23:28.440Z,98491.56
2023-04-22T06:25:54.659Z,98499.75
2023-04-22T06:28:20.859Z,98479.94
2023-04-22T06:30:47.065Z,98499.72
2023-04-22T06:33:13.304Z,98461.31
2023-04-22T06:35:39.554Z,98459.03
2023-04-22T06:38:05.796Z,98440.31
2023-04-22T06:40:32.019Z,98519.53
2023-04-22T06:42:58.248Z,98431.47
2023-04-22T06:45:24.456Z,98434.66
2023-04-22T06:47:52.168Z,98493.09
2023-04-22T06:50:18.404Z,98422.16
2023-04-22T06:52:44.698Z,98451.41
2023-04-22T06:55:10.904Z,98368.78
2023-04-22T06:57:37.160Z,98517.34
2023-04-22T07:00:04.149Z,98308.94
2023-04-22T07:02:30.457Z,98279.41
2023-04-22T07:04:56.797Z,98414.16
2023-04-22T07:07:23.039Z,98480.31
2023-04-22T07:09:49.255Z,98495.78
2023-04-22T07:12:15.568Z,98491.69
2023-04-22T07:14:44.928Z,98493.53
2023-04-22T07:17:11.246Z,98588.72
2023-04-22T07:19:37.789Z,98456.03
2023-04-22T07:22:04.276Z,98529.09
2023-04-22T07:24:30.511Z,98439.47
2023-04-22T07:26:56.783Z,98534.09
2023-04-22T07:29:22.991Z,98625.38
2023-04-22T07:31:49.241Z,98731.69
2023-04-22T07:34:15.465Z,98677.13
2023-04-22T07:36:41.677Z,98682.00
2023-04-22T07:39:07.910Z,98648.53
2023-04-22T07:41:34.116Z,98723.91
2023-04-22T07:44:00.333Z,98606.34
2023-04-22T07:46:26.585Z,98575.03
2023-04-22T07:48:53.139Z,98438.97
2023-04-22T07:51:19.348Z,98584.13
2023-04-22T07:53:45.569Z,98675.72
2023-04-22T07:56:11.772Z,98575.19
2023-04-22T07:58:37.985Z,98655.19
2023-04-22T08:01:04.297Z,98608.00
2023-04-22T08:03:30.757Z,98589.09
2023-04-22T08:05:57.113Z,98688.69
2023-04-22T08:08:23.623Z,98511.91
2023-04-22T08:10:49.874Z,98554.75
2023-04-22T08:13:18.209Z,98652.50
2023-04-22T08:15:44.673Z,98493.91
2023-04-22T08:18:10.921Z,98457.88
2023-04-22T08:20:37.150Z,98516.84
2023-04-22T08:23:03.378Z,98397.59
2023-04-22T08:25:29.572Z,98401.75
2023-04-22T08:27:55.791Z,98356.47
2023-04-22T08:30:22.021Z,98332.13
2023-04-22T08:32:48.299Z,98196.97
2023-04-22T08:35:14.528Z,98350.13
2023-04-22T08:37:41.831Z,98231.81
2023-04-22T08:40:08.288Z,98129.25
2023-04-22T08:42:34.495Z,98183.06
2023-04-22T08:45:02.065Z,98286.56
2023-04-22T08:47:28.410Z,98125.28
2023-04-22T08:49:54.992Z,98254.94
2023-04-22T08:52:21.295Z,98194.00
2023-04-22T08:54:47.509Z,98313.66
2023-04-22T08:57:13.944Z,98252.41
2023-04-22T08:59:40.397Z,98294.84
2023-04-22T09:02:07.153Z,98194.75
2023-04-22T09:04:33.655Z,98211.34
2023-04-22T09:06:59.952Z,97964.91
2023-04-22T09:09:26.148Z,98110.03
2023-04-22T09:11:53.609Z,98198.06
2023-04-22T09:14:19.851Z,98029.34
2023-04-22T09:16:48.883Z,97971.69
2023-04-22T09:19:15.215Z,97877.25
2023-04-22T09:21:41.601Z,98004.28
2023-04-22T09:24:11.096Z,97974.56
2023-04-22T09:26:40.688Z,97667.91
2023-04-22T09:29:06.922Z,97576.69
2023-04-22T09:31:33.165Z,97727.44
2023-04-22T09:33:59.536Z,97559.50
2023-04-22T09:36:28.929Z,97648.00
2023-04-22T09:38:58.595Z,97642.16
2023-04-22T09:41:31.503Z,97676.66
2023-04-22T09:43:58.154Z,97402.09
2023-04-22T09:46:24.668Z,97353.03
2023-04-22T09:48:51.091Z,97444.69
2023-04-22T09:51:17.403Z,97520.31
2023-04-22T09:53:43.620Z,97491.91
2023-04-22T09:56:09.834Z,97769.06
2023-04-22T09:58:39.168Z,97489.16
2023-04-22T10:01:05.394Z,97728.78
2023-04-22T10:03:31.901Z,97505.03
2023-04-22T10:05:58.483Z,97746.34
2023-04-22T10:08:24.739Z,97674.28
2023-04-22T10:10:50.950Z,97368.44
2023-04-22T10:13:17.175Z,97418.19
2023-04-22T10:15:44.530Z,96720.22
2023-04-22T10:18:11.871Z,96972.44
2023-04-22T10:20:38.936Z,97136.66
2023-04-22T10:23:05.462Z,96614.81
2023-04-22T10:25:31.719Z,96625.94
2023-04-22T10:28:04.928Z,96693.84
2023-04-22T10:30:31.789Z,96913.56
2023-04-22T10:33:16.786Z,97172.22
2023-04-22T10:35:43.387Z,97127.97
2023-04-22T10:38:09.624Z,97248.31
2023-04-22T10:40:35.828Z,96728.91
2023-04-22T10:43:02.054Z,96975.31
2023-04-22T10:45:28.278Z,96958.13
2023-04-22T10:47:54.517Z,97128.22
2023-04-22T10:50:21.852Z,97300.25
2023-04-22T10:52:49.390Z,97294.84
2023-04-22T10:55:15.609Z,97287.97
2023-04-22T10:57:42.386Z,97451.56
2023-04-22T11:00:24.760Z,97323.69
2023-04-22T11:02:51.890Z,97544.06
2023-04-22T11:05:23.970Z,97368.06
2023-04-22T11:07:52.722Z,97413.06
2023-04-22T11:10:38.456Z,97405.19
2023-04-22T11:13:04.683Z,97552.00
2023-04-22T11:15:30.898Z,97589.78
2023-04-22T11:17:57.191Z,97550.31
2023-04-22T11:20:23.415Z,97597.47
2023-04-22T11:22:53.284Z,97675.78
2023-04-22T11:25:19.606Z,97422.09
2023-04-22T11:27:45.879Z,97159.00
2023-04-22T11:30:16.127Z,97276.56
2023-04-22T11:32:43.361Z,97515.22
2023-04-22T11:35:10.861Z,97159.88
2023-04-22T11:37:46.544Z,96987.00
2023-04-22T11:40:28.003Z,97259.06
2023-04-22T11:42:56.368Z,97135.66
2023-04-22T11:45:22.667Z,97170.03
2023-04-22T11:47:49.161Z,97354.09
2023-04-22T11:50:15.430Z,97430.56
2023-04-22T11:52:45.328Z,97337.47
2023-04-22T11:55:12.116Z,97383.59
2023-04-22T11:57:38.325Z,97219.53
2023-04-22T12:00:04.875Z,97120.28
2023-04-22T12:02:31.161Z,97585.50
2023-04-22T12:04:58.008Z,97484.63
2023-04-22T12:07:26.366Z,97551.38
2023-04-22T12:09:55.838Z,97327.56
2023-04-22T12:12:28.241Z,97315.59
2023-04-22T12:18:17.197Z,97511.50
2023-04-22T12:20:43.406Z,97428.13
2023-04-22T12:23:13.141Z,97738.78
2023-04-22T12:25:39.361Z,97484.75
2023-04-22T12:28:11.130Z,97620.91
2023-04-22T12:45:00.978Z,97336.91
2023-04-22T12:47:27.231Z,97441.81
2023-04-22T12:49:53.446Z,97276.94
2023-04-22T12:53:01.272Z,97444.22
2023-04-22T12:55:27.474Z,97603.03
2023-04-22T12:57:53.716Z,97637.34
2023-04-22T13:03:10.541Z,97902.06
2023-04-22T13:05:36.795Z,97683.69
2023-04-22T13:08:07.123Z,97559.09
2023-04-22T13:10:34.153Z,97524.78
2023-04-22T13:13:15.414Z,97741.34
2023-04-22T13:15:43.648Z,98076.25
2023-04-22T13:18:09.909Z,97973.34
2023-04-22T13:20:36.165Z,97820.16
2023-04-22T13:23:02.458Z,97817.06
2023-04-22T13:25:28.753Z,97523.25
2023-04-22T13:27:54.975Z,97658.56
2023-04-22T13:30:21.217Z,97468.09
2023-04-22T13:32:47.469Z,97811.94
2023-04-22T13:38:22.582Z,97784.31
2023-04-22T13:40:48.794Z,97851.91
2023-04-22T13:43:15.021Z,97870.97
2023-04-22T13:45:41.550Z,97847.50
2023-04-22T13:48:07.772Z,97756.19
2023-04-22T13:50:33.974Z,97681.91
2023-04-22T13:56:23.404Z,97829.81
2023-04-22T13:58:50.740Z,97962.50
2023-04-22T14:01:17.407Z,97958.22
2023-04-22T14:04:05.022Z,97966.78
2023-04-22T14:06:38.696Z,98026.56
2023-04-22T14:09:04.970Z,98065.34
2023-04-22T14:11:53.944Z,98016.44
2023-04-22T14:17:04.512Z,98077.91
2023-04-22T14:25:46.346Z,98158.03
2023-04-22T14:28:25.772Z,98081.75
2023-04-22T14:30:52.394Z,98106.81
2023-04-22T14:33:18.909Z,97954.28
2023-04-22T14:35:45.135Z,97795.19
2023-04-22T14:51:09.565Z,98248.53
2023-04-22T14:56:58.584Z,98174.16
2023-04-22T14:59:24.791Z,97965.41
2023-04-22T15:01:51.015Z,97857.16
2023-04-22T15:04:17.647Z,97956.56
2023-04-22T15:06:43.929Z,98163.84
2023-04-22T15:09:10.309Z,97948.97
2023-04-22T15:11:36.547Z,97998.41
2023-04-22T15:17:11.813Z,98197.31
2023-04-22T15:19:38.207Z,98249.31
2023-04-22T15:22:04.584Z,98171.88
2023-04-22T15:24:30.791Z,98334.16
2023-04-22T15:27:06.452Z,98166.94
2023-04-22T15:29:32.686Z,98204.44
2023-04-22T15:31:58.926Z,98241.59
2023-04-22T15:34:25.150Z,98578.00
2023-04-22T15:36:51.347Z,98351.78
2023-04-22T15:39:17.547Z,98413.97
2023-04-22T15:41:43.760Z,98405.28
2023-04-22T15:44:11.114Z,98501.47
2023-04-22T15:46:39.068Z,98417.72
2023-04-22T15:49:05.282Z,98574.19
2023-04-22T15:51:31.507Z,98618.53
2023-04-22T15:53:57.827Z,98689.41
2023-04-22T15:56:24.440Z,98663.69
2023-04-22T15:58:50.823Z,98551.06
2023-04-22T16:01:19.419Z,98565.44
2023-04-22T16:03:46.922Z,98616.00
2023-04-22T16:06:13.250Z,98672.19
2023-04-22T16:14:52.020Z,98470.56
2023-04-22T16:17:18.298Z,98633.97
2023-04-22T16:19:44.539Z,98407.28
2023-04-22T16:22:10.753Z,98476.19
2023-04-22T16:24:36.971Z,98510.28
2023-04-22T16:27:03.187Z,98412.50
2023-04-22T16:32:39.120Z,98423.63
2023-04-22T16:35:05.643Z,98402.38
2023-04-22T16:37:31.864Z,98425.81
2023-04-22T16:39:58.079Z,98433.06
2023-04-22T16:42:24.290Z,98509.25
2023-04-22T16:44:50.498Z,98296.19
2023-04-22T16:47:16.723Z,98401.13
2023-04-22T16:52:51.988Z,98549.66
2023-04-22T16:55:18.225Z,98551.81
2023-04-22T16:57:44.436Z,98478.34
2023-04-22T17:00:10.856Z,98613.59
2023-04-22T17:08:49.194Z,98822.59
2023-04-22T17:11:15.485Z,98696.78
2023-04-22T17:13:49.306Z,98749.78
2023-04-22T17:16:15.705Z,98950.84
2023-04-22T17:18:41.952Z,99064.72
2023-04-22T17:21:33.515Z,98889.28
2023-04-22T17:24:00.397Z,99024.78
2023-04-22T17:26:26.607Z,99069.03
2023-04-22T17:32:00.953Z,99091.81
2023-04-22T17:34:27.156Z,99151.69
2023-04-22T17:36:53.375Z,99024.63
2023-04-22T17:42:19.847Z,99134.13
2023-04-22T17:47:13.715Z,99103.13
2023-04-22T17:49:40.273Z,99165.69
2023-04-22T17:52:06.732Z,99172.44
2023-04-22T17:54:32.930Z,99202.03
2023-04-22T17:56:59.152Z,99164.28
2023-04-22T17:59:25.355Z,99157.34
2023-04-22T18:01:51.601Z,99203.78
2023-04-22T18:04:17.963Z,99148.13
2023-04-22T18:06:44.277Z,99205.53
2023-04-22T18:09:10.489Z,99141.72
2023-04-22T18:11:36.704Z,99216.63
2023-04-22T18:14:02.916Z,99193.84
2023-04-22T18:16:29.180Z,99225.06
2023-04-22T18:18:55.487Z,99140.41
2023-04-22T18:21:21.697Z,99157.41
2023-04-22T18:23:47.893Z,99237.91
2023-04-22T18:26:14.093Z,99257.44
2023-04-22T18:28:40.294Z,99169.31
2023-04-22T18:31:06.997Z,99142.13
2023-04-22T18:33:33.273Z,99101.91
2023-04-22T18:35:59.526Z,99118.06
2023-04-22T18:38:25.774Z,99165.25
2023-04-22T18:40:52.009Z,99166.41
2023-04-22T18:43:18.216Z,99220.34
2023-04-22T18:45:44.453Z,99187.53
2023-04-22T18:48:10.725Z,99083.38
2023-04-22T18:50:36.949Z,99127.47
2023-04-22T18:53:03.158Z,99100.66
2023-04-22T18:55:29.381Z,99070.50
2023-04-22T18:57:55.584Z,99164.44
2023-04-22T19:00:21.794Z,99163.25
2023-04-22T19:02:48.077Z,99143.13
2023-04-22T19:05:14.387Z,99150.44
2023-04-22T19:07:42.489Z,99124.13
2023-04-22T19:10:09.962Z,99042.50
2023-04-22T19:12:36.173Z,98929.38
2023-04-22T19:15:02.387Z,98974.47
2023-04-22T19:17:28.633Z,98884.00
2023-04-22T19:19:55.011Z,98993.66
2023-04-22T19:22:21.287Z,99016.84
2023-04-22T19:24:47.495Z,99061.41
2023-04-22T19:27:13.838Z,99049.06
2023-04-22T19:29:40.752Z,99023.00
2023-04-22T19:32:07.706Z,99049.13
2023-04-22T19:34:33.904Z,99067.75
2023-04-22T19:37:00.153Z,99012.50
2023-04-22T19:39:26.346Z,99055.47
2023-04-22T19:41:52.576Z,99000.22
2023-04-22T19:44:18.799Z,98953.09
2023-04-22T19:46:45.064Z,99093.84
2023-04-22T19:49:11.438Z,99022.75
2023-04-22T19:51:38.572Z,98993.91
2023-04-22T19:54:05.059Z,98951.44
2023-04-22T19:56:31.574Z,98961.69
2023-04-22T19:58:57.863Z,99045.56
2023-04-22T20:01:24.567Z,99133.66
2023-04-22T20:03:50.991Z,99190.50
2023-04-22T20:06:17.416Z,99322.38
2023-04-22T20:08:43.634Z,99224.19
2023-04-22T20:11:09.873Z,99128.19
2023-04-22T20:13:36.119Z,99287.88
2023-04-22T20:16:02.448Z,99389.78
2023-04-22T20:18:28.721Z,99442.88
2023-04-22T20:20:54.965Z,99449.38
2023-04-22T20:23:21.181Z,99397.53
2023-04-22T20:25:47.388Z,99377.56
2023-04-22T20:28:13.650Z,99452.31
2023-04-22T20:30:40.313Z,99459.16
2023-04-22T20:33:06.637Z,99432.19
2023-04-22T20:35:33.084Z,99536.97
2023-04-22T20:37:59.351Z,99531.25
2023-04-22T20:40:25.576Z,99526.56
2023-04-22T20:42:51.790Z,99500.72
2023-04-22T20:45:18.040Z,99519.91
2023-04-22T20:47:44.298Z,99604.25
2023-04-22T20:50:10.726Z,99628.13
2023-04-22T20:52:36.965Z,99559.22
2023-04-22T20:55:03.185Z,99498.84
2023-04-22T20:57:29.389Z,99470.53
2023-04-22T20:59:55.601Z,99507.25
2023-04-22T21:02:21.918Z,99435.44
2023-04-22T21:04:48.291Z,99445.59
2023-04-22T21:07:15.387Z,99593.28
2023-04-22T21:09:41.685Z,99604.66
2023-04-22T21:12:08.146Z,99673.78
2023-04-22T21:14:34.385Z,99591.66
2023-04-22T21:17:01.199Z,99462.75
2023-04-22T21:19:29.603Z,99567.03
2023-04-22T21:21:55.867Z,99480.75
2023-04-22T21:24:22.068Z,99498.19
2023-04-22T21:26:48.267Z,99414.81
2023-04-22T21:29:14.541Z,99464.31
2023-04-22T21:31:40.922Z,99478.53
2023-04-22T21:34:07.275Z,99467.84
2023-04-22T21:36:33.480Z,99433.38
2023-04-22T21:38:59.752Z,99456.63
2023-04-22T21:41:25.983Z,99410.00
2023-04-22T21:43:52.199Z,99373.31
2023-04-22T21:46:18.416Z,99311.59
2023-04-22T21:48:44.685Z,99295.78
2023-04-22T21:51:10.888Z,99294.56
2023-04-22T21:53:37.102Z,99328.28
2023-04-22T21:56:03.303Z,99315.75
2023-04-22T21:58:29.507Z,99307.25
2023-04-22T22:00:55.731Z,99320.53
2023-04-22T22:03:22.058Z,99286.34
2023-04-22T22:05:48.385Z,99327.19
2023-04-22T22:08:14.613Z,99354.91
2023-04-22T22:10:40.823Z,99323.94
2023-04-22T22:13:07.024Z,99314.97
2023-04-22T22:15:33.246Z,99377.09
2023-04-22T22:17:59.572Z,99350.03
2023-04-22T22:20:25.799Z,99364.25
2023-04-22T22:22:52.041Z,99432.59
2023-04-22T22:25:18.252Z,99378.66
2023-04-22T22:27:44.473Z,99378.38
2023-04-22T22:30:10.904Z,99460.78
2023-04-22T22:32:37.126Z,99441.47
2023-04-22T22:35:03.371Z,99444.53
2023-04-22T22:37:29.588Z,99379.13
2023-04-22T22:39:55.793Z,99375.16
2023-04-22T22:42:22.094Z,99282.19
2023-04-22T22:44:48.295Z,99214.38
2023-04-22T22:47:14.510Z,99168.59
2023-04-22T22:49:40.749Z,99271.66
2023-04-22T22:52:06.984Z,99273.66
2023-04-22T22:54:35.792Z,99243.16
2023-04-22T22:57:02.005Z,99230.03
2023-04-22T22:59:28.216Z,99075.56
2023-04-22T23:01:54.455Z,99006.53
2023-04-22T23:04:21.040Z,99033.00
2023-04-22T23:06:47.473Z,99107.03
2023-04-22T23:09:13.691Z,99156.25
2023-04-22T23:11:39.899Z,99187.06
2023-04-22T23:14:06.120Z,99215.00
2023-04-22T23:16:32.355Z,99237.91
2023-04-22T23:18:58.591Z,99285.84
2023-04-22T23:21:24.790Z,99427.84
2023-04-22T23:23:50.995Z,99472.31
2023-04-22T23:26:17.262Z,99563.50
2023-04-22T23:28:43.512Z,99581.00
2023-04-22T23:31:09.741Z,99662.69
2023-04-22T23:33:36.107Z,99672.13
2023-04-22T23:36:03.335Z,99747.00
2023-04-22T23:38:29.553Z,99661.63
2023-04-22T23:40:55.772Z,99699.63
2023-04-22T23:43:21.992Z,99657.44
2023-04-22T23:45:48.255Z,99642.53
2023-04-22T23:48:14.492Z,99730.41
2023-04-22T23:50:40.691Z,99691.91
2023-04-22T23:53:06.895Z,99662.75
2023-04-22T23:55:33.245Z,99605.00
2023-04-22T23:57:59.491Z,99594.19
